Time;durP1;ratioP1;P1;durP2;ratioP2;P2;SDS_P1;SDS_P2;PMS_P1;PMS_P2;Temp;Humidity;BMP_temperature;BMP_pressure;BME280_temperature;BME280_humidity;BME280_pressure;Samples;Min_cycle;Max_cycle;Signal;HPM_P1;HPM_P2
2024/01/09 00:00:42;;;;;;;76.47;26.77;;;-16.00;90.30;;;;;;5071492;28;20024;-78
2024/01/09 00:03:08;;;;;;;65.93;24.37;;;-16.00;89.80;;;;;;5054349;28;20028;-78
2024/01/09 00:05:33;;;;;;;68.50;22.53;;;-16.10;89.60;;;;;;5071297;28;20017;-79
2024/01/09 00:07:59;;;;;;;69.80;23.80;;;-16.10;89.40;;;;;;5072476;28;20083;-80
2024/01/09 00:10:26;;;;;;;52.47;20.47;;;-16.10;89.30;;;;;;5072553;28;20367;-78
2024/01/09 00:12:51;;;;;;;64.80;21.90;;;-16.20;88.60;;;;;;5054367;28;20045;-78
2024/01/09 00:15:17;;;;;;;60.53;20.00;;;-16.20;88.50;;;;;;5054229;28;20028;-78
2024/01/09 00:17:43;;;;;;;44.93;18.30;;;-16.20;88.50;;;;;;5054371;28;20025;-78
2024/01/09 00:20:09;;;;;;;48.63;19.50;;;-16.30;88.60;;;;;;5072334;28;20016;-80
2024/01/09 00:22:35;;;;;;;47.63;18.93;;;-16.30;88.60;;;;;;5072326;28;20490;-77
2024/01/09 00:25:01;;;;;;;49.77;18.73;;;-16.30;88.50;;;;;;5071005;28;20015;-80
2024/01/09 00:27:26;;;;;;;72.83;24.10;;;-16.30;88.10;;;;;;5072626;28;20029;-83
2024/01/09 00:29:52;;;;;;;59.97;21.87;;;-16.40;87.50;;;;;;5072254;28;20021;-82
2024/01/09 00:32:18;;;;;;;70.30;22.77;;;-16.40;87.00;;;;;;5054317;28;20049;-83
2024/01/09 00:34:43;;;;;;;69.37;23.43;;;-16.50;86.50;;;;;;5072072;28;20118;-80
2024/01/09 00:37:09;;;;;;;85.83;27.40;;;-16.50;86.00;;;;;;5072319;28;20028;-83
2024/01/09 00:39:35;;;;;;;101.13;33.13;;;-16.60;86.10;;;;;;5054146;28;20497;-78
2024/01/09 00:42:00;;;;;;;85.97;32.90;;;-16.60;86.50;;;;;;5070517;28;20091;-77
2024/01/09 00:44:26;;;;;;;55.70;20.77;;;-16.60;86.40;;;;;;5054302;28;20056;-78
2024/01/09 00:46:51;;;;;;;55.10;20.57;;;-16.70;86.20;;;;;;5043431;28;20112;-77
2024/01/09 00:49:17;;;;;;;59.93;22.67;;;-16.70;86.30;;;;;;5071210;28;20032;-80
2024/01/09 00:51:42;;;;;;;100.93;26.50;;;-16.70;86.30;;;;;;5072129;28;20029;-77
2024/01/09 00:54:08;;;;;;;64.13;24.40;;;-16.80;85.50;;;;;;5072161;28;20067;-80
2024/01/09 00:56:34;;;;;;;63.13;25.43;;;-16.90;84.70;;;;;;5054351;28;20024;-77
2024/01/09 00:59:00;;;;;;;66.40;22.87;;;-17.10;83.70;;;;;;5053631;28;20492;-77
2024/01/09 01:01:25;;;;;;;76.73;24.53;;;-17.20;83.60;;;;;;5072298;28;20051;-80
2024/01/09 01:03:51;;;;;;;78.13;24.50;;;-17.20;83.90;;;;;;5053878;28;20032;-78
2024/01/09 01:06:17;;;;;;;80.23;24.00;;;-17.20;84.50;;;;;;5053885;28;20078;-78
2024/01/09 01:08:42;;;;;;;65.07;23.70;;;-17.20;84.70;;;;;;5074685;28;20016;-78
2024/01/09 01:11:08;;;;;;;77.87;26.57;;;-17.20;84.90;;;;;;5075747;28;20425;-77
2024/01/09 01:13:34;;;;;;;107.93;32.17;;;-17.30;84.90;;;;;;5075533;28;20031;-81
2024/01/09 01:15:59;;;;;;;79.43;28.87;;;-17.30;85.10;;;;;;5075416;28;20021;-81
2024/01/09 01:18:25;;;;;;;61.57;24.93;;;-17.30;85.10;;;;;;5075348;28;20028;-80
2024/01/09 01:20:51;;;;;;;68.47;23.40;;;-17.30;84.80;;;;;;5074858;28;20386;-77
2024/01/09 01:23:16;;;;;;;121.70;36.10;;;-17.30;84.70;;;;;;5075229;28;20036;-78
2024/01/09 01:25:42;;;;;;;71.40;24.87;;;-17.30;84.40;;;;;;5057421;28;20025;-81
2024/01/09 01:28:08;;;;;;;63.63;22.07;;;-17.40;83.90;;;;;;5074886;28;20017;-78
2024/01/09 01:30:33;;;;;;;62.83;20.60;;;-17.40;83.70;;;;;;5074085;28;20071;-78
2024/01/09 01:32:59;;;;;;;54.63;20.93;;;-17.50;83.50;;;;;;5075033;28;20118;-80
2024/01/09 01:35:25;;;;;;;58.60;19.90;;;-17.50;83.50;;;;;;5075322;28;20025;-80
2024/01/09 01:37:51;;;;;;;60.13;20.90;;;-17.50;83.40;;;;;;5056599;28;20488;-75
2024/01/09 01:40:17;;;;;;;48.53;18.23;;;-17.60;82.80;;;;;;5075194;28;20033;-79
2024/01/09 01:42:43;;;;;;;40.27;15.97;;;-17.70;82.20;;;;;;5075018;28;20035;-75
2024/01/09 01:45:22;;;;;;;35.90;17.07;;;-17.70;81.80;;;;;;5057224;28;20024;-75
2024/01/09 01:47:48;;;;;;;51.50;17.10;;;-17.80;81.30;;;;;;5074768;28;20431;-78
2024/01/09 01:50:15;;;;;;;43.23;15.63;;;-17.90;81.60;;;;;;5057082;28;20025;-76
2024/01/09 01:52:43;;;;;;;58.00;18.90;;;-17.80;81.50;;;;;;5056660;28;20489;-80
2024/01/09 01:55:10;;;;;;;56.63;19.60;;;-17.90;81.50;;;;;;5057173;28;20043;-78
2024/01/09 01:57:38;;;;;;;48.90;17.90;;;-17.90;81.50;;;;;;5073191;28;20021;-75
2024/01/09 02:00:04;;;;;;;43.93;17.07;;;-17.90;81.50;;;;;;5074637;28;20016;-75
2024/01/09 02:02:31;;;;;;;44.67;19.23;;;-17.90;81.50;;;;;;5056214;28;20102;-75
2024/01/09 02:04:57;;;;;;;53.83;18.87;;;-18.00;81.20;;;;;;5074693;28;20025;-75
2024/01/09 02:07:24;;;;;;;62.23;21.57;;;-18.00;81.00;;;;;;5056519;28;20016;-75
2024/01/09 02:09:53;;;;;;;63.47;21.60;;;-18.10;81.20;;;;;;5074649;28;20445;-78
2024/01/09 02:12:19;;;;;;;59.37;19.90;;;-18.10;80.90;;;;;;5056524;28;20017;-77
2024/01/09 02:14:44;;;;;;;44.97;16.70;;;-18.10;81.00;;;;;;5074508;28;20596;-76
2024/01/09 02:17:10;;;;;;;46.60;17.47;;;-18.10;81.00;;;;;;5056375;28;20115;-76
2024/01/09 02:19:36;;;;;;;56.33;18.73;;;-18.20;80.60;;;;;;5061841;28;20020;-78
2024/01/09 02:22:01;;;;;;;41.93;18.60;;;-18.20;80.20;;;;;;5072618;28;20033;-75
2024/01/09 02:24:27;;;;;;;55.13;19.03;;;-18.30;79.90;;;;;;5077844;28;20029;-77
2024/01/09 02:27:10;;;;;;;45.80;17.43;;;-18.40;79.50;;;;;;5074258;28;20025;-77
2024/01/09 02:29:46;;;;;;;58.60;17.57;;;-18.50;79.50;;;;;;5074070;28;20531;-77
2024/01/09 02:32:12;;;;;;;53.17;18.77;;;-18.40;79.60;;;;;;5073767;28;20015;-77
2024/01/09 02:34:41;;;;;;;57.43;19.60;;;-18.50;79.50;;;;;;5074346;28;20025;-77
2024/01/09 02:37:06;;;;;;;43.93;19.37;;;-18.50;79.60;;;;;;5072678;28;20484;-75
2024/01/09 02:39:32;;;;;;;63.30;23.37;;;-18.50;79.90;;;;;;5074040;28;20048;-75
2024/01/09 02:41:57;;;;;;;56.03;22.10;;;-18.50;80.00;;;;;;5073644;28;20020;-77
2024/01/09 02:44:23;;;;;;;69.70;23.30;;;-18.50;80.00;;;;;;5072947;28;20493;-77
2024/01/09 02:46:49;;;;;;;57.83;19.53;;;-18.60;79.70;;;;;;5074002;28;20500;-78
2024/01/09 02:49:14;;;;;;;47.03;18.90;;;-18.70;79.40;;;;;;5074167;28;20032;-78
2024/01/09 02:51:40;;;;;;;56.40;18.77;;;-18.70;79.40;;;;;;5073786;28;20470;-78
2024/01/09 02:54:05;;;;;;;52.23;19.70;;;-18.80;79.00;;;;;;5055913;28;20028;-75
2024/01/09 02:56:32;;;;;;;45.23;19.53;;;-18.80;78.90;;;;;;5073644;28;20052;-75
2024/01/09 02:58:58;;;;;;;50.23;18.80;;;-18.80;79.00;;;;;;5060481;28;20492;-78
2024/01/09 03:01:24;;;;;;;54.17;21.93;;;-18.80;79.00;;;;;;5074006;28;20047;-75
2024/01/09 03:03:50;;;;;;;50.20;18.07;;;-18.80;79.10;;;;;;5055331;28;20067;-77
2024/01/09 03:06:16;;;;;;;46.57;20.17;;;-18.80;79.20;;;;;;5055919;28;20013;-75
2024/01/09 03:08:41;;;;;;;63.07;21.33;;;-18.90;79.00;;;;;;5057122;28;20086;-78
2024/01/09 03:11:07;;;;;;;49.97;19.63;;;-18.90;79.00;;;;;;5073809;28;20031;-77
2024/01/09 03:13:32;;;;;;;66.83;20.80;;;-19.00;79.20;;;;;;5055376;28;20111;-75
2024/01/09 03:15:58;;;;;;;53.20;20.90;;;-18.90;79.50;;;;;;5073224;28;20016;-75
2024/01/09 03:18:24;;;;;;;58.10;19.50;;;-19.00;79.20;;;;;;5073104;28;20070;-75
2024/01/09 03:20:49;;;;;;;54.57;19.97;;;-19.00;78.80;;;;;;5055558;28;20031;-75
2024/01/09 03:23:15;;;;;;;58.37;21.20;;;-19.00;78.60;;;;;;5072959;28;20029;-78
2024/01/09 03:25:41;;;;;;;52.93;18.53;;;-19.10;78.30;;;;;;5055446;28;20035;-74
2024/01/09 03:28:06;;;;;;;54.40;18.57;;;-19.10;78.30;;;;;;5072856;28;20036;-79
2024/01/09 03:30:32;;;;;;;60.27;18.43;;;-19.20;78.10;;;;;;5072666;28;20024;-74
2024/01/09 03:32:57;;;;;;;44.53;19.27;;;-19.20;78.40;;;;;;5060615;28;20048;-74
2024/01/09 03:35:23;;;;;;;57.60;19.47;;;-19.20;78.70;;;;;;5073211;28;20032;-75
2024/01/09 03:37:49;;;;;;;43.57;19.13;;;-19.20;78.70;;;;;;5054982;28;20016;-77
2024/01/09 03:40:14;;;;;;;47.27;20.20;;;-19.20;78.70;;;;;;5055131;28;20106;-75
2024/01/09 03:42:40;;;;;;;53.17;17.77;;;-19.50;78.30;;;;;;5072616;28;20040;-79
2024/01/09 03:45:07;;;;;;;59.17;20.33;;;-19.50;78.40;;;;;;5071842;28;20096;-78
2024/01/09 03:47:33;;;;;;;59.87;19.73;;;-19.50;78.40;;;;;;5072780;28;20028;-77
2024/01/09 03:49:58;;;;;;;53.63;19.20;;;-19.60;78.40;;;;;;5072833;28;20063;-80
2024/01/09 03:52:24;;;;;;;46.90;18.97;;;-19.60;78.50;;;;;;5072674;28;20103;-75
2024/01/09 03:54:50;;;;;;;53.23;22.17;;;-19.60;78.60;;;;;;5072811;28;20025;-80
2024/01/09 03:57:15;;;;;;;57.57;19.63;;;-19.60;78.80;;;;;;5054408;28;20025;-78
2024/01/09 03:59:42;;;;;;;51.93;20.03;;;-19.60;78.80;;;;;;5038803;28;20020;-78
2024/01/09 04:02:07;;;;;;;51.23;21.27;;;-19.60;78.90;;;;;;5072685;28;20367;-79
2024/01/09 04:04:33;;;;;;;55.50;19.03;;;-19.60;78.80;;;;;;5055109;28;20028;-75
2024/01/09 04:06:59;;;;;;;45.87;17.23;;;-19.70;78.50;;;;;;5072332;28;20036;-75
2024/01/09 04:09:25;;;;;;;50.50;16.87;;;-19.80;78.20;;;;;;5060131;28;20394;-79
2024/01/09 04:11:50;;;;;;;47.90;18.43;;;-19.80;78.00;;;;;;5054606;28;20155;-78
2024/01/09 04:14:16;;;;;;;41.27;16.23;;;-19.80;78.00;;;;;;5054597;28;20107;-74
2024/01/09 04:16:51;;;;;;;62.53;19.30;;;-19.80;78.00;;;;;;5055000;28;20024;-81
2024/01/09 04:19:16;;;;;;;41.63;18.07;;;-19.80;78.10;;;;;;5061150;28;20553;-80
2024/01/09 04:21:42;;;;;;;52.27;17.07;;;-19.80;78.10;;;;;;5054277;28;20119;-75
2024/01/09 04:24:08;;;;;;;53.20;18.30;;;-19.80;78.00;;;;;;5054405;28;20050;-79
2024/01/09 04:26:34;;;;;;;54.40;19.47;;;-19.80;78.10;;;;;;5054493;28;20024;-79
2024/01/09 04:29:00;;;;;;;50.43;22.87;;;-19.80;78.10;;;;;;5072500;28;20017;-74
2024/01/09 04:31:25;;;;;;;50.87;20.27;;;-19.80;78.10;;;;;;5054203;28;20039;-74
2024/01/09 04:33:51;;;;;;;53.80;19.37;;;-19.80;78.20;;;;;;5072196;28;20118;-80
2024/01/09 04:36:17;;;;;;;68.63;26.47;;;-19.80;78.40;;;;;;5072149;28;20040;-81
2024/01/09 04:38:46;;;;;;;66.57;22.90;;;-19.80;78.30;;;;;;5072456;28;20532;-80
2024/01/09 04:41:16;;;;;;;71.40;23.63;;;-19.80;78.10;;;;;;5054061;28;20024;-75
2024/01/09 04:43:43;;;;;;;66.13;20.80;;;-19.80;78.10;;;;;;5075292;28;20039;-79
2024/01/09 04:46:08;;;;;;;52.77;21.13;;;-19.90;78.10;;;;;;5076162;28;20043;-74
2024/01/09 04:48:34;;;;;;;63.60;25.30;;;-19.90;78.20;;;;;;5075085;28;20103;-78
2024/01/09 04:51:00;;;;;;;67.10;20.97;;;-19.90;78.10;;;;;;5076308;28;20374;-74
2024/01/09 04:53:25;;;;;;;65.93;24.70;;;-19.90;78.10;;;;;;5076188;28;20477;-78
2024/01/09 04:55:51;;;;;;;54.13;22.03;;;-19.90;77.90;;;;;;5058128;28;20555;-78
2024/01/09 04:58:17;;;;;;;64.73;22.83;;;-20.00;77.70;;;;;;5058162;28;20062;-78
2024/01/09 05:00:42;;;;;;;64.50;22.10;;;-19.90;78.00;;;;;;5057666;28;20038;-74
2024/01/09 05:03:08;;;;;;;56.37;19.17;;;-20.00;77.70;;;;;;5076010;28;20064;-74
2024/01/09 05:05:33;;;;;;;60.20;20.83;;;-20.00;77.70;;;;;;5057917;28;20112;-80
2024/01/09 05:07:59;;;;;;;55.23;20.27;;;-19.90;78.00;;;;;;5057736;28;20099;-77
2024/01/09 05:10:25;;;;;;;49.33;18.23;;;-19.90;77.90;;;;;;5075891;28;20063;-74
2024/01/09 05:12:50;;;;;;;42.70;20.03;;;-20.00;77.50;;;;;;5075874;28;20021;-74
2024/01/09 05:15:16;;;;;;;52.87;17.97;;;-20.00;77.50;;;;;;5075447;28;20086;-78
2024/01/09 05:17:42;;;;;;;47.20;18.03;;;-20.00;77.60;;;;;;5075757;28;20024;-74
2024/01/09 05:20:08;;;;;;;48.97;17.30;;;-19.90;77.70;;;;;;5057527;28;20013;-74
2024/01/09 05:22:37;;;;;;;41.47;17.13;;;-20.00;77.70;;;;;;5075603;28;20036;-78
2024/01/09 05:25:03;;;;;;;53.10;18.43;;;-20.00;77.90;;;;;;5075405;28;20032;-79
2024/01/09 05:27:28;;;;;;;47.27;16.40;;;-19.90;78.20;;;;;;5075433;28;20028;-79
2024/01/09 05:29:54;;;;;;;55.87;18.40;;;-20.00;78.10;;;;;;5057088;28;20124;-78
2024/01/09 05:32:20;;;;;;;47.60;16.03;;;-19.90;78.40;;;;;;5065318;28;20048;-79
2024/01/09 05:34:46;;;;;;;47.23;17.43;;;-20.00;78.30;;;;;;5055261;28;20490;-79
2024/01/09 05:37:11;;;;;;;61.03;21.43;;;-19.90;78.50;;;;;;5055447;28;20032;-79
2024/01/09 05:39:37;;;;;;;70.43;25.13;;;-20.00;78.00;;;;;;5055339;28;20087;-79
2024/01/09 05:42:03;;;;;;;63.40;22.90;;;-20.00;77.80;;;;;;5037197;28;20071;-78
2024/01/09 05:44:28;;;;;;;114.13;26.23;;;-20.00;77.60;;;;;;5055242;28;20483;-75
2024/01/09 05:46:54;;;;;;;91.93;23.97;;;-19.90;77.70;;;;;;5037104;28;20112;-78
2024/01/09 05:49:20;;;;;;;94.60;22.97;;;-19.90;78.10;;;;;;5055179;28;20505;-75
2024/01/09 05:51:45;;;;;;;83.03;24.83;;;-19.80;78.70;;;;;;5036710;28;20021;-78
2024/01/09 05:54:11;;;;;;;77.23;23.37;;;-19.70;79.70;;;;;;5054330;28;20021;-75
2024/01/09 05:56:37;;;;;;;79.47;20.00;;;-19.60;81.30;;;;;;5054868;28;20526;-74
2024/01/09 05:59:03;;;;;;;48.43;18.20;;;-19.20;84.00;;;;;;5036722;28;20028;-78
2024/01/09 06:01:29;;;;;;;52.43;19.63;;;-19.00;85.90;;;;;;5054657;28;20092;-78
2024/01/09 06:03:54;;;;;;;34.93;14.83;;;-18.90;88.20;;;;;;5036702;28;20128;-75
2024/01/09 06:06:20;;;;;;;32.77;15.03;;;-18.80;89.90;;;;;;5036270;28;20025;-78
2024/01/09 06:08:48;;;;;;;42.50;17.43;;;-18.60;92.50;;;;;;5036582;28;20025;-75
2024/01/09 06:11:14;;;;;;;54.23;17.73;;;-18.60;94.10;;;;;;5053609;28;20101;-75
2024/01/09 06:13:40;;;;;;;47.30;16.20;;;-18.50;96.10;;;;;;5053914;28;20143;-75
2024/01/09 06:16:06;;;;;;;65.77;20.87;;;-18.30;98.50;;;;;;5035785;28;20044;-75
2024/01/09 06:18:31;;;;;;;43.03;17.90;;;-18.10;99.90;;;;;;5034721;28;20021;-75
2024/01/09 06:20:57;;;;;;;55.30;19.73;;;-18.10;99.90;;;;;;5052858;28;20095;-75
2024/01/09 06:23:23;;;;;;;37.20;15.60;;;-18.00;99.90;;;;;;5047661;28;20507;-78
2024/01/09 06:25:48;;;;;;;35.70;18.73;;;-18.00;99.90;;;;;;5058194;28;20025;-76
2024/01/09 06:28:14;;;;;;;38.50;16.17;;;-17.90;99.90;;;;;;5036125;28;20017;-76
2024/01/09 06:30:39;;;;;;;36.70;15.70;;;-17.90;99.90;;;;;;5053405;28;20021;-75
2024/01/09 06:33:05;;;;;;;30.17;12.90;;;-17.80;99.90;;;;;;5064687;28;20083;-76
2024/01/09 06:35:31;;;;;;;33.60;14.43;;;-17.70;99.90;;;;;;5074126;28;20441;-76
2024/01/09 06:37:57;;;;;;;42.00;15.53;;;-17.70;99.90;;;;;;5067239;28;20024;-75
2024/01/09 06:40:23;;;;;;;45.23;17.80;;;-17.60;99.90;;;;;;5089191;28;20024;-75
2024/01/09 06:42:50;;;;;;;38.97;18.73;;;-17.60;99.90;;;;;;5063324;28;20482;-75
2024/01/09 06:45:16;;;;;;;71.40;22.47;;;-17.50;99.90;;;;;;5069394;28;20112;-77
2024/01/09 06:47:42;;;;;;;30.50;16.07;;;-17.50;99.90;;;;;;5071897;28;20147;-77
2024/01/09 06:50:08;;;;;;;52.90;25.10;;;-17.40;99.90;;;;;;5090106;28;20020;-77
2024/01/09 06:52:34;;;;;;;54.20;22.97;;;-17.40;99.90;;;;;;5069698;28;20394;-76
2024/01/09 06:55:00;;;;;;;48.83;18.50;;;-17.30;99.90;;;;;;5072551;28;20031;-77
2024/01/09 06:57:25;;;;;;;41.87;16.17;;;-17.40;99.90;;;;;;5076222;28;20044;-77
2024/01/09 06:59:51;;;;;;;54.90;21.37;;;-17.40;99.90;;;;;;5072140;28;20024;-76
2024/01/09 07:02:17;;;;;;;66.33;25.63;;;-17.40;99.90;;;;;;5070818;28;20037;-77
2024/01/09 07:04:43;;;;;;;56.47;21.40;;;-17.40;99.90;;;;;;5050515;28;20355;-77
2024/01/09 07:07:09;;;;;;;71.83;24.00;;;-17.30;99.90;;;;;;5049843;28;20592;-76
2024/01/09 07:09:36;;;;;;;63.80;25.40;;;-17.40;99.90;;;;;;5069993;28;20070;-76
2024/01/09 07:12:02;;;;;;;50.47;20.27;;;-17.40;99.90;;;;;;5068775;28;20025;-77
2024/01/09 07:14:28;;;;;;;59.30;24.73;;;-17.40;99.90;;;;;;5070444;28;20028;-76
2024/01/09 07:16:54;;;;;;;72.37;28.50;;;-17.40;99.90;;;;;;5078374;28;20023;-77
2024/01/09 07:19:19;;;;;;;64.23;27.20;;;-17.40;99.90;;;;;;5086770;28;20028;-77
2024/01/09 07:21:45;;;;;;;59.10;25.40;;;-17.40;99.90;;;;;;5086124;28;20020;-76
2024/01/09 07:24:11;;;;;;;50.13;22.77;;;-17.40;99.90;;;;;;5089828;28;20020;-77
2024/01/09 07:26:40;;;;;;;52.07;21.30;;;-17.30;99.90;;;;;;5088065;28;20024;-76
2024/01/09 07:29:05;;;;;;;64.77;24.07;;;-17.30;99.90;;;;;;5069395;28;20117;-77
2024/01/09 07:31:31;;;;;;;73.07;25.27;;;-17.30;99.90;;;;;;5057425;28;20048;-76
2024/01/09 07:33:57;;;;;;;53.47;24.63;;;-17.20;99.90;;;;;;5072734;28;20055;-77
2024/01/09 07:36:22;;;;;;;59.77;28.80;;;-17.10;99.90;;;;;;5088464;28;20022;-77
2024/01/09 07:38:48;;;;;;;53.03;22.63;;;-17.10;99.90;;;;;;5071969;28;20024;-77
2024/01/09 07:41:17;;;;;;;65.73;24.77;;;-17.00;99.90;;;;;;5088247;28;20028;-77
2024/01/09 07:43:45;;;;;;;58.20;25.93;;;-16.90;99.90;;;;;;5089965;28;20385;-77
2024/01/09 07:46:11;;;;;;;38.50;18.13;;;-16.90;99.90;;;;;;5071771;28;20024;-77
2024/01/09 07:48:37;;;;;;;49.77;18.80;;;-16.80;99.90;;;;;;5092401;28;20077;-78
2024/01/09 07:51:02;;;;;;;44.90;21.30;;;-16.70;99.90;;;;;;5072902;28;20128;-79
2024/01/09 07:53:28;;;;;;;46.20;21.13;;;-16.60;99.90;;;;;;5092069;28;20032;-77
2024/01/09 07:55:54;;;;;;;48.60;24.77;;;-16.60;99.90;;;;;;5070964;28;20036;-77
2024/01/09 07:58:20;;;;;;;63.60;22.70;;;-16.50;99.90;;;;;;5073584;28;20040;-80
2024/01/09 08:00:46;;;;;;;46.70;21.87;;;-16.50;99.90;;;;;;5070074;28;20025;-80
2024/01/09 08:03:13;;;;;;;51.60;25.27;;;-16.40;99.90;;;;;;5080950;28;20492;-80
2024/01/09 08:05:39;;;;;;;48.70;22.47;;;-16.40;99.90;;;;;;5071402;28;20062;-80
2024/01/09 08:08:06;;;;;;;36.67;17.67;;;-16.30;99.90;;;;;;5091600;28;20091;-79
2024/01/09 08:10:31;;;;;;;47.57;23.20;;;-16.20;99.90;;;;;;5071763;28;20042;-79
2024/01/09 08:12:57;;;;;;;78.53;31.07;;;-16.10;99.90;;;;;;5073140;28;20024;-79
2024/01/09 08:15:23;;;;;;;75.43;32.50;;;-16.00;99.90;;;;;;5090668;28;20359;-79
2024/01/09 08:17:49;;;;;;;65.80;27.13;;;-15.90;99.90;;;;;;5082319;28;20021;-79
2024/01/09 08:20:15;;;;;;;46.37;23.80;;;-15.80;99.90;;;;;;5087559;28;20048;-79
2024/01/09 08:22:40;;;;;;;64.00;26.27;;;-15.80;99.90;;;;;;5073701;28;20028;-79
2024/01/09 08:25:06;;;;;;;66.00;27.93;;;-15.60;99.90;;;;;;5069545;28;20496;-79
2024/01/09 08:27:32;;;;;;;52.17;25.07;;;-15.60;99.90;;;;;;5073920;28;20027;-79
2024/01/09 08:29:57;;;;;;;56.07;26.13;;;-15.40;99.90;;;;;;5071197;28;20482;-80
2024/01/09 08:32:23;;;;;;;50.03;23.00;;;-15.30;99.90;;;;;;5080248;28;20044;-79
2024/01/09 08:34:49;;;;;;;53.97;22.37;;;-15.30;99.90;;;;;;5072665;28;20027;-79
2024/01/09 08:37:14;;;;;;;55.50;22.03;;;-15.10;99.90;;;;;;5073438;28;20017;-79
2024/01/09 08:39:40;;;;;;;60.83;26.53;;;-15.00;99.90;;;;;;5089335;28;20025;-79
2024/01/09 08:42:06;;;;;;;60.97;25.47;;;-14.90;99.90;;;;;;5073495;28;20032;-79
2024/01/09 08:44:31;;;;;;;54.13;26.53;;;-14.80;99.90;;;;;;5090831;28;20028;-79
2024/01/09 08:46:57;;;;;;;72.63;32.00;;;-14.70;99.90;;;;;;5091724;28;20099;-79
2024/01/09 08:49:23;;;;;;;65.80;30.53;;;-14.60;99.90;;;;;;5060222;28;20029;-80
2024/01/09 08:51:48;;;;;;;84.47;39.80;;;-14.50;99.90;;;;;;5091981;28;20092;-79
2024/01/09 08:54:14;;;;;;;70.77;29.27;;;-14.40;99.90;;;;;;5072974;28;20024;-79
2024/01/09 08:56:40;;;;;;;81.13;36.33;;;-14.30;99.90;;;;;;5091834;28;20024;-79
2024/01/09 08:59:07;;;;;;;52.50;21.97;;;-14.10;99.90;;;;;;5091238;28;20457;-79
2024/01/09 09:01:35;;;;;;;80.30;32.53;;;-14.10;99.90;;;;;;5073848;28;20013;-79
2024/01/09 09:04:02;;;;;;;89.33;39.33;;;-14.00;99.90;;;;;;5090291;28;20480;-78
2024/01/09 09:06:28;;;;;;;65.30;27.03;;;-13.90;99.90;;;;;;5091376;28;20099;-77
2024/01/09 09:08:54;;;;;;;80.40;29.20;;;-13.80;99.90;;;;;;5071394;28;20508;-77
2024/01/09 09:11:20;;;;;;;98.47;41.37;;;-13.70;99.90;;;;;;5072528;28;20103;-78
2024/01/09 09:13:46;;;;;;;159.57;50.70;;;-13.60;99.90;;;;;;5087933;28;20093;-78
2024/01/09 09:16:12;;;;;;;104.63;41.40;;;-13.50;99.90;;;;;;5071974;28;20075;-78
2024/01/09 09:18:37;;;;;;;132.67;41.87;;;-13.50;99.90;;;;;;5087765;28;20066;-78
2024/01/09 09:21:04;;;;;;;106.57;33.97;;;-13.40;99.90;;;;;;5090229;28;20035;-78
2024/01/09 09:23:30;;;;;;;124.87;40.27;;;-13.30;99.90;;;;;;5088078;28;20089;-78
2024/01/09 09:25:56;;;;;;;131.53;41.57;;;-13.10;99.90;;;;;;5089259;28;20016;-78
2024/01/09 09:28:22;;;;;;;166.87;48.47;;;-13.00;99.90;;;;;;5086575;28;20050;-78
2024/01/09 09:30:47;;;;;;;87.93;31.67;;;-12.90;99.90;;;;;;5086130;28;20025;-78
2024/01/09 09:33:13;;;;;;;102.87;35.07;;;-12.80;99.90;;;;;;5089204;28;20044;-78
2024/01/09 09:35:39;;;;;;;77.13;27.47;;;-12.80;99.90;;;;;;5076698;28;20020;-78
2024/01/09 09:38:05;;;;;;;46.80;20.07;;;-12.70;99.80;;;;;;5091850;28;20124;-78
2024/01/09 09:40:30;;;;;;;54.47;19.20;;;-12.60;99.40;;;;;;5074759;28;20078;-79
2024/01/09 09:43:00;;;;;;;130.33;40.20;;;-12.50;98.90;;;;;;5072516;28;20059;-80
2024/01/09 09:45:27;;;;;;;51.13;20.47;;;-12.40;98.50;;;;;;5054543;28;20024;-80
2024/01/09 09:47:56;;;;;;;60.37;23.37;;;-12.40;97.20;;;;;;5071105;28;20027;-80
2024/01/09 09:50:23;;;;;;;41.67;18.80;;;-12.30;96.80;;;;;;5075165;28;20042;-80
2024/01/09 09:52:49;;;;;;;66.93;20.90;;;-12.20;96.40;;;;;;5071061;28;20024;-80
2024/01/09 09:55:16;;;;;;;108.17;37.47;;;-12.10;96.00;;;;;;5092269;28;20013;-80
2024/01/09 09:57:42;;;;;;;77.50;27.67;;;-12.00;95.80;;;;;;5089692;28;20048;-80
2024/01/09 10:00:09;;;;;;;130.80;38.87;;;-11.90;95.20;;;;;;5074481;28;20097;-80
2024/01/09 10:02:38;;;;;;;101.97;35.80;;;-11.80;94.10;;;;;;5071754;28;20020;-80
2024/01/09 10:05:13;;;;;;;169.17;50.57;;;-11.80;92.70;;;;;;5092727;28;20020;-80
2024/01/09 10:07:42;;;;;;;128.07;38.20;;;-11.70;92.20;;;;;;5090071;28;20016;-80
2024/01/09 10:10:08;;;;;;;87.13;25.93;;;-11.60;91.40;;;;;;5091002;28;20027;-79
2024/01/09 10:12:34;;;;;;;121.20;40.73;;;-11.50;91.00;;;;;;5055829;28;20387;-79
2024/01/09 10:15:11;;;;;;;72.00;26.67;;;-11.40;90.80;;;;;;5056570;28;20021;-78
2024/01/09 10:17:41;;;;;;;71.20;27.23;;;-11.40;90.10;;;;;;5045035;28;20555;-79
2024/01/09 10:20:10;;;;;;;80.17;28.50;;;-11.20;90.10;;;;;;5056655;28;20119;-80
2024/01/09 10:22:38;;;;;;;48.57;21.07;;;-11.20;89.40;;;;;;5074758;28;20037;-79
2024/01/09 10:25:06;;;;;;;28.60;13.93;;;-11.10;89.60;;;;;;5074461;28;20135;-77
2024/01/09 10:27:36;;;;;;;48.17;17.77;;;-11.10;87.00;;;;;;5056766;28;20025;-77
2024/01/09 10:30:03;;;;;;;61.00;19.60;;;-11.10;86.60;;;;;;5074070;28;20417;-78
2024/01/09 10:32:31;;;;;;;40.27;15.27;;;-11.00;86.20;;;;;;5056319;28;20044;-77
2024/01/09 10:34:57;;;;;;;33.70;14.80;;;-10.90;86.10;;;;;;5074468;28;20017;-77
2024/01/09 10:37:24;;;;;;;31.33;13.03;;;-10.90;85.20;;;;;;5074308;28;20078;-77
2024/01/09 10:39:51;;;;;;;38.87;15.60;;;-10.80;84.70;;;;;;5072993;28;20028;-77
2024/01/09 10:42:17;;;;;;;38.03;15.43;;;-10.80;84.50;;;;;;5056170;28;20044;-79
2024/01/09 10:44:46;;;;;;;32.13;12.37;;;-10.70;84.40;;;;;;5056194;28;20013;-80
2024/01/09 10:47:15;;;;;;;28.60;12.60;;;-10.60;83.80;;;;;;5056227;28;20024;-80
2024/01/09 10:49:42;;;;;;;26.97;12.20;;;-10.60;83.90;;;;;;5074114;28;20024;-77
2024/01/09 10:52:15;;;;;;;25.10;11.57;;;-10.50;83.70;;;;;;5056292;28;20112;-77
2024/01/09 10:54:42;;;;;;;21.47;9.77;;;-10.40;82.80;;;;;;5074001;28;20054;-77
2024/01/09 10:57:16;;;;;;;28.00;13.37;;;-10.40;82.70;;;;;;5074059;28;20025;-78
2024/01/09 10:59:45;;;;;;;28.10;12.93;;;-10.30;82.30;;;;;;5060677;28;20017;-77
2024/01/09 11:02:22;;;;;;;23.27;10.07;;;-10.30;81.80;;;;;;5073632;28;20035;-78
2024/01/09 11:04:48;;;;;;;28.40;11.53;;;-10.20;81.20;;;;;;5056073;28;20432;-77
2024/01/09 11:07:15;;;;;;;25.67;10.53;;;-10.10;81.30;;;;;;5073547;28;20044;-77
2024/01/09 11:09:43;;;;;;;16.43;9.77;;;-10.10;80.70;;;;;;5055980;28;20055;-77
2024/01/09 11:12:19;;;;;;;17.67;8.67;;;-10.10;80.00;;;;;;5055524;28;20027;-78
2024/01/09 11:14:51;;;;;;;107.00;35.67;;;-10.00;79.10;;;;;;5073737;28;20099;-77
2024/01/09 11:17:18;;;;;;;51.22;21.10;;;-9.90;78.70;;;;;;5073372;28;20027;-77
2024/01/09 11:19:44;;;;;;;30.87;14.13;;;-9.80;78.40;;;;;;5073586;28;20056;-77
2024/01/09 11:22:35;;;;;;;20.93;9.03;;;-9.80;78.20;;;;;;5055251;28;20435;-77
2024/01/09 11:25:04;;;;;;;20.07;8.87;;;-9.70;76.80;;;;;;5055331;28;20096;-77
2024/01/09 11:27:39;;;;;;;14.00;6.03;;;-9.70;76.90;;;;;;5073425;28;20031;-78
2024/01/09 11:30:05;;;;;;;23.13;9.90;;;-9.60;76.40;;;;;;5073061;28;20025;-78
2024/01/09 11:32:33;;;;;;;13.53;7.13;;;-9.50;76.80;;;;;;5072966;28;20402;-77
2024/01/09 11:35:17;;;;;;;28.80;10.57;;;-9.40;76.50;;;;;;5073013;28;20527;-77
2024/01/09 11:37:48;;;;;;;18.57;7.63;;;-9.30;77.10;;;;;;5073341;28;20086;-77
2024/01/09 11:40:15;;;;;;;14.17;7.63;;;-9.30;76.30;;;;;;5042441;28;20031;-77
2024/01/09 11:42:59;;;;;;;18.57;8.90;;;-9.30;76.10;;;;;;5072976;28;20036;-78
2024/01/09 11:45:25;;;;;;;21.77;10.93;;;-9.30;75.10;;;;;;5055290;28;20024;-78
2024/01/09 11:47:55;;;;;;;15.13;8.03;;;-9.20;75.00;;;;;;5072999;28;20470;-79
2024/01/09 11:50:21;;;;;;;22.37;9.70;;;-9.20;74.70;;;;;;5055295;28;20023;-79
2024/01/09 11:52:49;;;;;;;26.77;11.83;;;-9.20;74.10;;;;;;5072409;28;20091;-78
2024/01/09 11:55:16;;;;;;;27.30;11.77;;;-9.20;73.70;;;;;;5072924;28;20495;-77
2024/01/09 11:57:43;;;;;;;18.40;8.87;;;-9.20;73.70;;;;;;5072720;28;20015;-78
2024/01/09 12:00:10;;;;;;;17.20;8.87;;;-9.20;73.30;;;;;;5072971;28;20382;-77
2024/01/09 12:02:37;;;;;;;19.63;9.40;;;-9.10;73.20;;;;;;5072611;28;20035;-77
2024/01/09 12:05:07;;;;;;;24.70;8.10;;;-9.00;73.30;;;;;;5054862;28;20031;-78
2024/01/09 12:07:34;;;;;;;14.57;7.83;;;-9.00;72.40;;;;;;5072485;28;20024;-78
2024/01/09 12:10:03;;;;;;;22.77;9.10;;;-9.00;72.00;;;;;;5072912;28;20013;-78
2024/01/09 12:12:29;;;;;;;20.53;10.17;;;-8.90;71.40;;;;;;5072557;28;20108;-78
2024/01/09 12:14:57;;;;;;;28.10;10.90;;;-8.90;71.10;;;;;;5054770;28;20503;-78